createdAt,value
2019-02-27T00:00:37.135Z,2.23
2019-02-27T00:05:41.707Z,2.00
2019-02-27T00:10:45.898Z,2.35
2019-02-27T00:15:49.371Z,1.90
2019-02-27T00:20:52.855Z,2.05
2019-02-27T00:25:56.334Z,3.72
2019-02-27T00:30:59.820Z,1.98
2019-02-27T00:36:03.305Z,2.00
2019-02-27T00:41:06.782Z,2.40
2019-02-27T00:46:10.736Z,1.70
2019-02-27T00:51:15.470Z,2.33
2019-02-27T00:56:18.956Z,2.67
2019-02-27T01:01:22.434Z,2.03
2019-02-27T01:06:25.922Z,2.50
2019-02-27T01:11:29.404Z,2.25
2019-02-27T01:16:32.888Z,2.83
2019-02-27T01:21:36.372Z,2.57
2019-02-27T01:26:39.862Z,2.40
2019-02-27T01:31:43.344Z,2.33
2019-02-27T01:36:46.836Z,1.93
2019-02-27T01:41:50.316Z,3.17
2019-02-27T01:46:54.602Z,2.08
2019-02-27T01:51:59.172Z,1.40
2019-02-27T01:57:03.645Z,1.77
2019-02-27T02:02:07.134Z,1.47
2019-02-27T02:07:10.780Z,2.08
2019-02-27T02:12:20.119Z,1.93
2019-02-27T02:17:26.637Z,2.45
2019-02-27T02:22:33.160Z,2.10
2019-02-27T02:27:45.473Z,1.70
2019-02-27T02:33:20.986Z,2.00
2019-02-27T02:38:33.562Z,2.60
2019-02-27T02:44:13.737Z,2.15
2019-02-27T02:49:29.283Z,1.70
2019-02-27T02:54:47.603Z,1.83
2019-02-27T03:00:18.398Z,1.77
2019-02-27T03:05:36.676Z,2.40
2019-02-27T03:10:46.133Z,1.30
2019-02-27T03:16:05.711Z,2.05
2019-02-27T03:21:17.768Z,1.70
2019-02-27T03:26:32.620Z,1.87
2019-02-27T03:31:57.689Z,2.40
2019-02-27T03:37:04.993Z,1.50
2019-02-27T03:42:17.204Z,1.57
2019-02-27T03:47:38.687Z,1.75
2019-02-27T03:53:03.727Z,1.70
2019-02-27T03:58:21.924Z,1.80
2019-02-27T04:03:40.196Z,2.58
2019-02-27T04:08:57.065Z,1.45
2019-02-27T04:14:05.010Z,1.50
2019-02-27T04:19:05.728Z,1.75
2019-02-27T04:24:09.195Z,2.13
2019-02-27T04:29:12.678Z,1.65
2019-02-27T04:34:16.151Z,1.70
2019-02-27T04:39:19.622Z,1.70
2019-02-27T04:44:23.093Z,1.90
2019-02-27T04:49:26.569Z,1.27
2019-02-27T04:54:30.038Z,1.10
2019-02-27T04:59:33.510Z,2.02
2019-02-27T05:04:36.990Z,1.40
2019-02-27T05:09:40.450Z,1.87
2019-02-27T05:14:43.925Z,2.03
2019-02-27T05:19:47.397Z,1.87
2019-02-27T05:24:50.870Z,1.20
2019-02-27T05:29:54.347Z,1.70
2019-02-27T05:34:57.827Z,1.32
2019-02-27T05:40:01.305Z,5.17
2019-02-27T05:45:07.215Z,1.73
2019-02-27T05:50:12.125Z,1.20
2019-02-27T05:55:15.596Z,1.35
2019-02-27T06:00:21.709Z,2.53
2019-02-27T06:05:25.188Z,1.75
2019-02-27T06:10:28.657Z,2.37
2019-02-27T06:15:32.128Z,1.87
2019-02-27T06:20:35.642Z,1.75
2019-02-27T06:25:39.108Z,2.95
2019-02-27T06:30:42.587Z,1.70
2019-02-27T06:35:46.129Z,2.15
2019-02-27T06:40:49.606Z,2.50
2019-02-27T06:45:54.250Z,2.03
2019-02-27T06:50:58.318Z,2.17
2019-02-27T06:56:03.981Z,1.35
2019-02-27T07:01:09.726Z,1.30
2019-02-27T07:06:12.793Z,3.05
2019-02-27T07:11:16.535Z,1.33
2019-02-27T07:16:20.474Z,2.10
2019-02-27T07:21:25.211Z,0.93
2019-02-27T07:26:28.685Z,1.83
2019-02-27T07:31:32.159Z,1.65
2019-02-27T07:36:35.965Z,1.97
2019-02-27T07:41:40.832Z,1.75
2019-02-27T07:46:44.308Z,2.87
2019-02-27T07:51:48.580Z,10.20
2019-02-27T07:56:52.144Z,14.58
2019-02-27T08:01:55.629Z,13.38
2019-02-27T08:06:59.092Z,13.58
2019-02-27T08:12:02.564Z,12.03
2019-02-27T08:17:17.015Z,11.20
2019-02-27T08:22:11.232Z,11.27
2019-02-27T08:27:14.704Z,11.47
2019-02-27T08:32:18.160Z,9.27
2019-02-27T08:37:21.624Z,9.30
2019-02-27T08:42:25.081Z,7.17
2019-02-27T08:47:28.545Z,6.87
2019-02-27T08:52:32.005Z,7.67
2019-02-27T08:57:35.468Z,6.63
2019-02-27T09:02:39.711Z,7.80
2019-02-27T09:07:43.220Z,5.30
2019-02-27T09:12:48.872Z,4.83
2019-02-27T09:17:51.830Z,3.72
2019-02-27T09:22:55.872Z,4.20
2019-02-27T09:27:59.442Z,6.67
2019-02-27T09:33:02.903Z,5.00
2019-02-27T09:38:06.437Z,4.27
2019-02-27T09:43:09.959Z,3.60
2019-02-27T09:48:13.437Z,5.63
2019-02-27T09:53:16.912Z,4.70
2019-02-27T09:58:21.985Z,5.60
2019-02-27T10:03:25.541Z,5.90
2019-02-27T10:08:29.006Z,5.43
2019-02-27T10:13:35.500Z,3.40
2019-02-27T10:18:38.592Z,6.10
2019-02-27T10:23:42.047Z,2.98
2019-02-27T10:28:45.511Z,3.30
2019-02-27T10:33:49.957Z,2.90
2019-02-27T10:38:53.425Z,4.17
2019-02-27T10:43:57.319Z,3.07
2019-02-27T10:49:00.736Z,5.15
2019-02-27T10:54:05.495Z,4.85
2019-02-27T10:59:09.041Z,3.40
2019-02-27T11:04:12.501Z,3.63
2019-02-27T11:09:24.275Z,5.10
2019-02-27T11:14:31.649Z,4.13
2019-02-27T11:19:34.794Z,2.83
2019-02-27T11:24:38.113Z,7.13
2019-02-27T11:29:41.574Z,3.60
2019-02-27T11:34:45.620Z,5.22
2019-02-27T11:39:50.244Z,13.55
2019-02-27T11:44:53.743Z,17.95
2019-02-27T11:49:57.214Z,19.87
2019-02-27T11:55:00.705Z,18.98
2019-02-27T12:00:06.032Z,14.90
2019-02-27T12:05:12.269Z,11.50
2019-02-27T12:10:18.469Z,16.27
2019-02-27T12:15:22.192Z,12.70
2019-02-27T12:20:26.113Z,10.03
2019-02-27T12:25:30.249Z,9.10
2019-02-27T12:30:37.121Z,10.48
2019-02-27T12:35:39.183Z,10.78
2019-02-27T12:40:42.665Z,11.37
2019-02-27T12:45:46.145Z,8.35
2019-02-27T12:50:49.617Z,8.38
2019-02-27T12:55:53.094Z,8.13
2019-02-27T13:00:56.572Z,7.97
2019-02-27T13:06:01.004Z,8.33
2019-02-27T13:11:07.731Z,14.60
2019-02-27T13:16:14.241Z,12.63
2019-02-27T13:21:20.206Z,12.90
2019-02-27T13:26:20.790Z,12.47
2019-02-27T13:31:24.270Z,17.17
2019-02-27T13:36:27.751Z,16.87
2019-02-27T13:41:31.248Z,14.30
2019-02-27T13:46:34.718Z,13.98
2019-02-27T13:51:40.246Z,11.03
2019-02-27T13:56:43.411Z,13.20
2019-02-27T14:01:46.898Z,10.00
2019-02-27T14:06:50.374Z,8.47
2019-02-27T14:11:58.384Z,10.90
2019-02-27T14:16:59.062Z,11.93
2019-02-27T14:22:07.116Z,8.10
2019-02-27T14:27:07.746Z,9.68
2019-02-27T14:32:11.226Z,10.40
2019-02-27T14:37:16.536Z,10.08
2019-02-27T14:42:20.776Z,9.20
2019-02-27T14:47:24.803Z,9.77
2019-02-27T14:52:28.286Z,7.00
2019-02-27T14:57:31.751Z,9.65
2019-02-27T15:02:35.250Z,8.33
2019-02-27T15:07:38.723Z,6.08
2019-02-27T15:12:42.193Z,5.97
2019-02-27T15:17:45.672Z,8.53
2019-02-27T15:22:52.512Z,5.60
2019-02-27T15:27:58.277Z,9.93
2019-02-27T15:33:03.788Z,10.08
2019-02-27T15:38:05.163Z,6.67
2019-02-27T15:43:11.444Z,6.78
2019-02-27T15:48:13.832Z,6.17
2019-02-27T15:53:17.294Z,6.40
2019-02-27T15:58:20.759Z,5.17
2019-02-27T16:03:24.219Z,4.33
2019-02-27T16:08:27.681Z,3.70
2019-02-27T16:13:31.981Z,4.42
2019-02-27T16:18:36.929Z,4.47
2019-02-27T16:23:41.171Z,4.45
2019-02-27T16:28:46.166Z,5.83
2019-02-27T16:33:49.819Z,4.55
2019-02-27T16:38:53.294Z,4.00
2019-02-27T16:43:56.751Z,3.60
2019-02-27T16:49:00.212Z,3.37
2019-02-27T16:54:03.872Z,3.67
2019-02-27T16:59:08.588Z,11.97
2019-02-27T17:04:12.531Z,5.17
2019-02-27T17:09:15.987Z,5.25
2019-02-27T17:14:21.171Z,3.83
2019-02-27T17:19:24.638Z,4.67
2019-02-27T17:24:28.102Z,8.25
2019-02-27T17:29:31.564Z,5.17
2019-02-27T17:34:35.489Z,4.72
2019-02-27T17:39:38.975Z,10.40
2019-02-27T17:44:42.437Z,3.30
2019-02-27T17:49:45.903Z,2.60
2019-02-27T17:54:50.856Z,3.20
2019-02-27T18:05:11.098Z,3.90
2019-02-27T18:10:15.384Z,7.50
2019-02-27T18:15:23.502Z,1.67
2019-02-27T18:20:27.042Z,2.55
2019-02-27T18:46:56.264Z,2.92
2019-02-27T18:51:59.392Z,2.62
2019-02-27T18:57:02.853Z,5.90
2019-02-27T19:02:07.581Z,4.97
2019-02-27T19:07:12.785Z,3.15
2019-02-27T19:12:16.415Z,4.45
2019-02-27T19:17:19.891Z,4.78
2019-02-27T19:22:23.404Z,4.87
2019-02-27T19:27:26.943Z,5.03
2019-02-27T19:32:30.752Z,6.83
2019-02-27T19:37:36.340Z,6.70
2019-02-27T19:42:48.305Z,5.97
2019-02-27T19:47:54.599Z,6.12
2019-02-27T19:52:57.021Z,7.62
2019-02-27T19:58:00.555Z,13.45
2019-02-27T20:03:04.095Z,10.03
2019-02-27T20:08:10.801Z,7.00
2019-02-27T20:13:13.047Z,7.80
2019-02-27T20:18:16.685Z,8.63
2019-02-27T20:23:20.141Z,7.62
2019-02-27T20:28:23.601Z,6.95
2019-02-27T20:33:27.131Z,8.88
2019-02-27T20:38:30.595Z,6.37
2019-02-27T20:43:34.064Z,7.53
2019-02-27T20:48:39.732Z,7.05
2019-02-27T20:53:42.720Z,6.72
2019-02-27T20:58:51.101Z,7.37
2019-02-27T21:03:51.370Z,6.53
2019-02-27T21:08:54.830Z,7.90
2019-02-27T21:13:58.296Z,6.28
2019-02-27T21:19:02.590Z,4.62
2019-02-27T21:24:06.703Z,3.30
2019-02-27T21:29:10.162Z,5.05
2019-02-27T21:34:13.623Z,4.17
2019-02-27T21:39:17.153Z,3.33
2019-02-27T21:44:25.505Z,3.85
2019-02-27T21:49:25.801Z,3.55
2019-02-27T21:54:29.268Z,3.17
2019-02-27T21:59:32.729Z,5.63
2019-02-27T22:04:36.188Z,3.17
2019-02-27T22:09:39.732Z,3.17
2019-02-27T22:14:43.194Z,3.20
2019-02-27T22:19:46.663Z,2.77
2019-02-27T22:24:52.268Z,3.83
2019-02-27T22:29:55.949Z,2.92
2019-02-27T22:35:02.800Z,2.60
2019-02-27T22:40:07.577Z,7.37
2019-02-27T22:45:16.599Z,3.03
2019-02-27T22:50:21.101Z,3.90
2019-02-27T22:55:24.578Z,2.95
2019-02-27T23:00:44.132Z,3.37
2019-02-27T23:05:47.801Z,2.20
2019-02-27T23:10:51.453Z,2.83
2019-02-27T23:15:57.807Z,2.22
2019-02-27T23:21:00.138Z,2.60
2019-02-27T23:26:03.706Z,1.82
2019-02-27T23:31:07.250Z,4.05
2019-02-27T23:36:10.729Z,3.52
2019-02-27T23:41:14.212Z,2.50
2019-02-27T23:46:18.489Z,2.77
2019-02-27T23:51:22.746Z,4.35
2019-02-27T23:56:26.227Z,2.20
